sensor_id;sensor_type;location;lat;lon;timestamp;P1;durP1;ratioP1;P2;durP2;ratioP2
51814;SDS011;37874;53.158;6.766;2022-07-25T00:00:04;1.90;;;1.27;;
51814;SDS011;37874;53.158;6.766;2022-07-25T00:02:33;1.90;;;1.20;;
51814;SDS011;37874;53.158;6.766;2022-07-25T00:04:58;1.60;;;1.20;;
51814;SDS011;37874;53.158;6.766;2022-07-25T00:07:25;1.92;;;1.33;;
51814;SDS011;37874;53.158;6.766;2022-07-25T00:09:54;1.90;;;1.40;;
51814;SDS011;37874;53.158;6.766;2022-07-25T00:12:22;2.33;;;1.70;;
51814;SDS011;37874;53.158;6.766;2022-07-25T00:14:51;2.20;;;1.60;;
51814;SDS011;37874;53.158;6.766;2022-07-25T00:17:16;1.90;;;1.40;;
51814;SDS011;37874;53.158;6.766;2022-07-25T00:19:42;1.95;;;1.48;;
51814;SDS011;37874;53.158;6.766;2022-07-25T00:22:08;2.03;;;1.55;;
51814;SDS011;37874;53.158;6.766;2022-07-25T00:24:33;2.40;;;1.70;;
51814;SDS011;37874;53.158;6.766;2022-07-25T00:26:59;2.33;;;1.67;;
51814;SDS011;37874;53.158;6.766;2022-07-25T00:29:26;2.20;;;1.70;;
51814;SDS011;37874;53.158;6.766;2022-07-25T00:31:52;2.10;;;1.70;;
51814;SDS011;37874;53.158;6.766;2022-07-25T00:34:18;2.00;;;1.60;;
51814;SDS011;37874;53.158;6.766;2022-07-25T00:36:43;2.13;;;1.73;;
51814;SDS011;37874;53.158;6.766;2022-07-25T00:39:09;2.60;;;1.52;;
51814;SDS011;37874;53.158;6.766;2022-07-25T00:41:35;2.20;;;1.80;;
51814;SDS011;37874;53.158;6.766;2022-07-25T00:44:00;2.17;;;1.80;;
51814;SDS011;37874;53.158;6.766;2022-07-25T00:46:26;2.33;;;2.10;;
51814;SDS011;37874;53.158;6.766;2022-07-25T00:48:52;2.55;;;2.05;;
51814;SDS011;37874;53.158;6.766;2022-07-25T00:51:17;2.50;;;2.10;;
51814;SDS011;37874;53.158;6.766;2022-07-25T00:53:43;2.78;;;2.10;;
51814;SDS011;37874;53.158;6.766;2022-07-25T00:56:09;2.60;;;2.15;;
51814;SDS011;37874;53.158;6.766;2022-07-25T00:58:35;2.70;;;2.40;;
51814;SDS011;37874;53.158;6.766;2022-07-25T01:01:01;2.70;;;2.22;;
51814;SDS011;37874;53.158;6.766;2022-07-25T01:03:28;2.70;;;2.30;;
51814;SDS011;37874;53.158;6.766;2022-07-25T01:05:54;2.92;;;2.40;;
51814;SDS011;37874;53.158;6.766;2022-07-25T01:08:20;3.20;;;2.78;;
51814;SDS011;37874;53.158;6.766;2022-07-25T01:10:46;2.83;;;2.53;;
51814;SDS011;37874;53.158;6.766;2022-07-25T01:13:13;3.75;;;3.35;;
51814;SDS011;37874;53.158;6.766;2022-07-25T01:15:39;3.40;;;3.10;;
51814;SDS011;37874;53.158;6.766;2022-07-25T01:18:06;3.55;;;3.25;;
51814;SDS011;37874;53.158;6.766;2022-07-25T01:20:32;3.38;;;3.08;;
51814;SDS011;37874;53.158;6.766;2022-07-25T01:22:58;3.78;;;3.22;;
51814;SDS011;37874;53.158;6.766;2022-07-25T01:25:25;3.90;;;3.50;;
51814;SDS011;37874;53.158;6.766;2022-07-25T01:27:51;3.97;;;3.58;;
51814;SDS011;37874;53.158;6.766;2022-07-25T01:30:18;4.07;;;3.67;;
51814;SDS011;37874;53.158;6.766;2022-07-25T01:32:45;3.80;;;3.40;;
51814;SDS011;37874;53.158;6.766;2022-07-25T01:35:11;3.90;;;3.50;;
51814;SDS011;37874;53.158;6.766;2022-07-25T01:37:38;3.80;;;3.50;;
51814;SDS011;37874;53.158;6.766;2022-07-25T01:40:04;4.15;;;3.72;;
51814;SDS011;37874;53.158;6.766;2022-07-25T01:42:31;4.57;;;3.90;;
51814;SDS011;37874;53.158;6.766;2022-07-25T01:44:57;4.18;;;3.75;;
51814;SDS011;37874;53.158;6.766;2022-07-25T01:47:22;4.35;;;3.95;;
51814;SDS011;37874;53.158;6.766;2022-07-25T01:49:48;4.28;;;3.88;;
51814;SDS011;37874;53.158;6.766;2022-07-25T01:52:14;4.18;;;3.78;;
51814;SDS011;37874;53.158;6.766;2022-07-25T01:54:40;4.40;;;4.00;;
51814;SDS011;37874;53.158;6.766;2022-07-25T01:57:05;4.35;;;3.95;;
51814;SDS011;37874;53.158;6.766;2022-07-25T01:59:31;4.55;;;4.13;;
51814;SDS011;37874;53.158;6.766;2022-07-25T02:02:00;4.28;;;3.88;;
51814;SDS011;37874;53.158;6.766;2022-07-25T02:04:25;4.38;;;3.97;;
51814;SDS011;37874;53.158;6.766;2022-07-25T02:06:51;4.78;;;4.38;;
51814;SDS011;37874;53.158;6.766;2022-07-25T02:09:17;4.40;;;4.00;;
51814;SDS011;37874;53.158;6.766;2022-07-25T02:11:42;4.82;;;4.43;;
51814;SDS011;37874;53.158;6.766;2022-07-25T02:14:08;4.78;;;4.32;;
51814;SDS011;37874;53.158;6.766;2022-07-25T02:16:34;4.63;;;4.22;;
51814;SDS011;37874;53.158;6.766;2022-07-25T02:18:59;4.97;;;4.53;;
51814;SDS011;37874;53.158;6.766;2022-07-25T02:21:25;4.63;;;4.22;;
51814;SDS011;37874;53.158;6.766;2022-07-25T02:23:51;4.72;;;4.32;;
51814;SDS011;37874;53.158;6.766;2022-07-25T02:26:16;5.10;;;4.60;;
51814;SDS011;37874;53.158;6.766;2022-07-25T02:28:42;4.57;;;4.18;;
51814;SDS011;37874;53.158;6.766;2022-07-25T02:31:08;4.88;;;4.38;;
51814;SDS011;37874;53.158;6.766;2022-07-25T02:33:34;5.20;;;4.70;;
51814;SDS011;37874;53.158;6.766;2022-07-25T02:36:00;5.50;;;5.00;;
51814;SDS011;37874;53.158;6.766;2022-07-25T02:38:26;5.00;;;4.50;;
51814;SDS011;37874;53.158;6.766;2022-07-25T02:40:51;5.30;;;4.80;;
51814;SDS011;37874;53.158;6.766;2022-07-25T02:43:18;5.13;;;4.65;;
51814;SDS011;37874;53.158;6.766;2022-07-25T02:45:44;5.05;;;4.55;;
51814;SDS011;37874;53.158;6.766;2022-07-25T02:48:10;5.13;;;4.63;;
51814;SDS011;37874;53.158;6.766;2022-07-25T02:50:36;5.45;;;4.95;;
51814;SDS011;37874;53.158;6.766;2022-07-25T02:53:02;5.03;;;4.53;;
51814;SDS011;37874;53.158;6.766;2022-07-25T02:55:28;5.32;;;4.82;;
51814;SDS011;37874;53.158;6.766;2022-07-25T02:57:54;5.20;;;4.70;;
51814;SDS011;37874;53.158;6.766;2022-07-25T03:00:20;5.47;;;4.97;;
51814;SDS011;37874;53.158;6.766;2022-07-25T03:02:46;5.82;;;5.22;;
51814;SDS011;37874;53.158;6.766;2022-07-25T03:05:13;5.93;;;5.32;;
51814;SDS011;37874;53.158;6.766;2022-07-25T03:07:40;5.40;;;4.90;;
51814;SDS011;37874;53.158;6.766;2022-07-25T03:10:07;5.68;;;5.18;;
51814;SDS011;37874;53.158;6.766;2022-07-25T03:12:34;5.57;;;5.07;;
51814;SDS011;37874;53.158;6.766;2022-07-25T03:15:00;5.13;;;4.63;;
51814;SDS011;37874;53.158;6.766;2022-07-25T03:17:27;5.45;;;4.93;;
51814;SDS011;37874;53.158;6.766;2022-07-25T03:19:54;5.25;;;4.10;;
51814;SDS011;37874;53.158;6.766;2022-07-25T03:22:20;4.40;;;4.00;;
51814;SDS011;37874;53.158;6.766;2022-07-25T03:24:46;4.78;;;4.38;;
51814;SDS011;37874;53.158;6.766;2022-07-25T03:27:12;4.43;;;4.03;;
51814;SDS011;37874;53.158;6.766;2022-07-25T03:29:38;4.88;;;4.38;;
51814;SDS011;37874;53.158;6.766;2022-07-25T03:32:03;4.63;;;4.22;;
51814;SDS011;37874;53.158;6.766;2022-07-25T03:34:29;4.78;;;4.22;;
51814;SDS011;37874;53.158;6.766;2022-07-25T03:36:55;4.75;;;4.25;;
51814;SDS011;37874;53.158;6.766;2022-07-25T03:39:21;5.03;;;4.40;;
51814;SDS011;37874;53.158;6.766;2022-07-25T03:41:48;4.25;;;3.85;;
51814;SDS011;37874;53.158;6.766;2022-07-25T03:44:15;5.30;;;4.80;;
51814;SDS011;37874;53.158;6.766;2022-07-25T03:46:40;5.05;;;4.55;;
51814;SDS011;37874;53.158;6.766;2022-07-25T03:49:06;5.20;;;4.70;;
51814;SDS011;37874;53.158;6.766;2022-07-25T03:51:32;5.20;;;4.70;;
51814;SDS011;37874;53.158;6.766;2022-07-25T03:53:57;5.28;;;4.78;;
51814;SDS011;37874;53.158;6.766;2022-07-25T03:56:26;5.25;;;4.75;;
51814;SDS011;37874;53.158;6.766;2022-07-25T03:58:53;5.90;;;4.88;;
51814;SDS011;37874;53.158;6.766;2022-07-25T04:01:18;5.10;;;4.60;;
51814;SDS011;37874;53.158;6.766;2022-07-25T04:03:44;5.07;;;4.57;;
51814;SDS011;37874;53.158;6.766;2022-07-25T04:06:10;5.60;;;5.00;;
51814;SDS011;37874;53.158;6.766;2022-07-25T04:08:36;5.25;;;4.75;;
51814;SDS011;37874;53.158;6.766;2022-07-25T04:11:02;5.03;;;4.50;;
51814;SDS011;37874;53.158;6.766;2022-07-25T04:13:27;5.05;;;4.55;;
51814;SDS011;37874;53.158;6.766;2022-07-25T04:15:54;5.55;;;4.97;;
51814;SDS011;37874;53.158;6.766;2022-07-25T04:18:20;5.38;;;4.88;;
51814;SDS011;37874;53.158;6.766;2022-07-25T04:20:45;5.07;;;4.57;;
51814;SDS011;37874;53.158;6.766;2022-07-25T04:23:11;5.47;;;4.97;;
51814;SDS011;37874;53.158;6.766;2022-07-25T04:25:37;5.32;;;4.82;;
51814;SDS011;37874;53.158;6.766;2022-07-25T04:28:02;5.55;;;5.05;;
51814;SDS011;37874;53.158;6.766;2022-07-25T04:30:28;4.80;;;4.40;;
51814;SDS011;37874;53.158;6.766;2022-07-25T04:32:54;5.10;;;4.60;;
51814;SDS011;37874;53.158;6.766;2022-07-25T04:35:20;5.05;;;4.55;;
51814;SDS011;37874;53.158;6.766;2022-07-25T04:37:46;5.07;;;4.57;;
51814;SDS011;37874;53.158;6.766;2022-07-25T04:40:11;5.20;;;4.70;;
51814;SDS011;37874;53.158;6.766;2022-07-25T04:42:37;5.15;;;4.65;;
51814;SDS011;37874;53.158;6.766;2022-07-25T04:45:03;5.28;;;4.78;;
51814;SDS011;37874;53.158;6.766;2022-07-25T04:47:29;5.25;;;4.75;;
51814;SDS011;37874;53.158;6.766;2022-07-25T04:49:54;4.82;;;4.35;;
51814;SDS011;37874;53.158;6.766;2022-07-25T04:52:20;5.43;;;4.93;;
51814;SDS011;37874;53.158;6.766;2022-07-25T04:54:46;5.47;;;4.97;;
51814;SDS011;37874;53.158;6.766;2022-07-25T04:57:11;5.10;;;4.60;;
51814;SDS011;37874;53.158;6.766;2022-07-25T04:59:37;4.95;;;4.45;;
51814;SDS011;37874;53.158;6.766;2022-07-25T05:02:03;4.97;;;4.47;;
51814;SDS011;37874;53.158;6.766;2022-07-25T05:04:28;4.82;;;4.43;;
51814;SDS011;37874;53.158;6.766;2022-07-25T05:06:54;5.00;;;4.50;;
51814;SDS011;37874;53.158;6.766;2022-07-25T05:09:19;5.20;;;4.70;;
51814;SDS011;37874;53.158;6.766;2022-07-25T05:11:45;4.68;;;4.28;;
51814;SDS011;37874;53.158;6.766;2022-07-25T05:14:11;4.75;;;4.35;;
51814;SDS011;37874;53.158;6.766;2022-07-25T05:16:37;4.50;;;4.05;;
51814;SDS011;37874;53.158;6.766;2022-07-25T05:19:03;5.18;;;4.68;;
51814;SDS011;37874;53.158;6.766;2022-07-25T05:21:29;5.78;;;4.90;;
51814;SDS011;37874;53.158;6.766;2022-07-25T05:23:54;4.95;;;4.45;;
51814;SDS011;37874;53.158;6.766;2022-07-25T05:26:20;4.85;;;4.45;;
51814;SDS011;37874;53.158;6.766;2022-07-25T05:28:45;5.28;;;4.78;;
51814;SDS011;37874;53.158;6.766;2022-07-25T05:31:11;4.90;;;4.43;;
51814;SDS011;37874;53.158;6.766;2022-07-25T05:33:37;4.53;;;4.13;;
51814;SDS011;37874;53.158;6.766;2022-07-25T05:36:02;4.85;;;4.35;;
51814;SDS011;37874;53.158;6.766;2022-07-25T05:38:29;4.90;;;4.40;;
51814;SDS011;37874;53.158;6.766;2022-07-25T05:40:55;5.30;;;4.80;;
51814;SDS011;37874;53.158;6.766;2022-07-25T05:43:21;4.60;;;4.10;;
51814;SDS011;37874;53.158;6.766;2022-07-25T05:45:46;4.93;;;4.43;;
51814;SDS011;37874;53.158;6.766;2022-07-25T05:48:13;4.65;;;4.20;;
51814;SDS011;37874;53.158;6.766;2022-07-25T05:50:39;4.68;;;4.22;;
51814;SDS011;37874;53.158;6.766;2022-07-25T05:53:05;4.90;;;4.43;;
51814;SDS011;37874;53.158;6.766;2022-07-25T05:55:31;4.82;;;4.32;;
51814;SDS011;37874;53.158;6.766;2022-07-25T05:57:57;4.43;;;4.03;;
51814;SDS011;37874;53.158;6.766;2022-07-25T06:00:23;4.82;;;4.32;;
51814;SDS011;37874;53.158;6.766;2022-07-25T06:02:49;5.00;;;4.50;;
51814;SDS011;37874;53.158;6.766;2022-07-25T06:05:15;5.03;;;4.53;;
51814;SDS011;37874;53.158;6.766;2022-07-25T06:07:40;4.85;;;4.35;;
51814;SDS011;37874;53.158;6.766;2022-07-25T06:10:06;4.90;;;4.40;;
51814;SDS011;37874;53.158;6.766;2022-07-25T06:12:32;4.88;;;4.40;;
51814;SDS011;37874;53.158;6.766;2022-07-25T06:14:58;4.35;;;3.95;;
51814;SDS011;37874;53.158;6.766;2022-07-25T06:17:24;4.32;;;3.92;;
51814;SDS011;37874;53.158;6.766;2022-07-25T06:19:50;4.75;;;4.25;;
51814;SDS011;37874;53.158;6.766;2022-07-25T06:22:16;4.40;;;4.00;;
51814;SDS011;37874;53.158;6.766;2022-07-25T06:24:43;4.50;;;4.10;;
51814;SDS011;37874;53.158;6.766;2022-07-25T06:27:09;4.30;;;3.90;;
51814;SDS011;37874;53.158;6.766;2022-07-25T06:29:36;4.25;;;3.85;;
51814;SDS011;37874;53.158;6.766;2022-07-25T06:32:02;4.55;;;4.15;;
51814;SDS011;37874;53.158;6.766;2022-07-25T06:34:28;4.57;;;4.18;;
51814;SDS011;37874;53.158;6.766;2022-07-25T06:36:54;4.88;;;4.38;;
51814;SDS011;37874;53.158;6.766;2022-07-25T06:39:21;3.80;;;3.40;;
51814;SDS011;37874;53.158;6.766;2022-07-25T06:41:48;4.57;;;4.10;;
51814;SDS011;37874;53.158;6.766;2022-07-25T06:44:15;4.30;;;3.90;;
51814;SDS011;37874;53.158;6.766;2022-07-25T06:46:41;4.15;;;3.75;;
51814;SDS011;37874;53.158;6.766;2022-07-25T06:49:06;4.15;;;3.70;;
51814;SDS011;37874;53.158;6.766;2022-07-25T06:51:32;4.38;;;3.97;;
51814;SDS011;37874;53.158;6.766;2022-07-25T06:53:58;4.45;;;4.03;;
51814;SDS011;37874;53.158;6.766;2022-07-25T06:56:24;4.75;;;4.25;;
51814;SDS011;37874;53.158;6.766;2022-07-25T06:58:49;4.47;;;4.00;;
51814;SDS011;37874;53.158;6.766;2022-07-25T07:01:17;4.35;;;3.95;;
51814;SDS011;37874;53.158;6.766;2022-07-25T07:03:42;4.28;;;3.88;;
51814;SDS011;37874;53.158;6.766;2022-07-25T07:06:08;4.80;;;4.30;;
51814;SDS011;37874;53.158;6.766;2022-07-25T07:08:34;4.30;;;3.90;;
51814;SDS011;37874;53.158;6.766;2022-07-25T07:11:00;4.38;;;3.97;;
51814;SDS011;37874;53.158;6.766;2022-07-25T07:13:25;5.05;;;4.55;;
51814;SDS011;37874;53.158;6.766;2022-07-25T07:15:51;5.10;;;4.32;;
51814;SDS011;37874;53.158;6.766;2022-07-25T07:18:17;4.70;;;4.25;;
51814;SDS011;37874;53.158;6.766;2022-07-25T07:20:44;4.88;;;4.38;;
51814;SDS011;37874;53.158;6.766;2022-07-25T07:23:10;4.80;;;4.30;;
51814;SDS011;37874;53.158;6.766;2022-07-25T07:25:36;4.07;;;3.67;;
51814;SDS011;37874;53.158;6.766;2022-07-25T07:28:02;5.55;;;5.05;;
51814;SDS011;37874;53.158;6.766;2022-07-25T07:30:28;5.15;;;4.65;;
51814;SDS011;37874;53.158;6.766;2022-07-25T07:32:54;4.95;;;4.45;;
51814;SDS011;37874;53.158;6.766;2022-07-25T07:35:19;4.78;;;4.38;;
51814;SDS011;37874;53.158;6.766;2022-07-25T07:37:45;4.90;;;4.40;;
51814;SDS011;37874;53.158;6.766;2022-07-25T07:40:12;4.65;;;4.20;;
51814;SDS011;37874;53.158;6.766;2022-07-25T07:42:43;4.45;;;4.05;;
51814;SDS011;37874;53.158;6.766;2022-07-25T07:45:11;4.68;;;4.28;;
51814;SDS011;37874;53.158;6.766;2022-07-25T07:47:37;5.43;;;4.70;;
51814;SDS011;37874;53.158;6.766;2022-07-25T07:50:03;4.80;;;4.30;;
51814;SDS011;37874;53.158;6.766;2022-07-25T07:52:29;5.10;;;4.55;;
51814;SDS011;37874;53.158;6.766;2022-07-25T07:54:55;4.53;;;4.13;;
51814;SDS011;37874;53.158;6.766;2022-07-25T07:57:39;5.43;;;4.93;;
51814;SDS011;37874;53.158;6.766;2022-07-25T08:00:05;4.38;;;3.97;;
51814;SDS011;37874;53.158;6.766;2022-07-25T08:02:31;4.38;;;3.97;;
51814;SDS011;37874;53.158;6.766;2022-07-25T08:05:05;4.35;;;3.95;;
51814;SDS011;37874;53.158;6.766;2022-07-25T08:07:32;5.20;;;4.70;;
51814;SDS011;37874;53.158;6.766;2022-07-25T08:09:58;4.13;;;3.72;;
51814;SDS011;37874;53.158;6.766;2022-07-25T08:12:23;4.10;;;3.70;;
51814;SDS011;37874;53.158;6.766;2022-07-25T08:14:49;5.10;;;3.58;;
51814;SDS011;37874;53.158;6.766;2022-07-25T08:17:14;5.35;;;3.60;;
51814;SDS011;37874;53.158;6.766;2022-07-25T08:19:40;3.80;;;3.40;;
51814;SDS011;37874;53.158;6.766;2022-07-25T08:22:06;3.75;;;3.33;;
51814;SDS011;37874;53.158;6.766;2022-07-25T08:24:31;3.55;;;3.25;;
51814;SDS011;37874;53.158;6.766;2022-07-25T08:26:57;3.80;;;3.10;;
51814;SDS011;37874;53.158;6.766;2022-07-25T08:29:23;3.72;;;3.35;;
51814;SDS011;37874;53.158;6.766;2022-07-25T08:31:48;3.90;;;3.47;;
51814;SDS011;37874;53.158;6.766;2022-07-25T08:34:14;3.70;;;3.30;;
51814;SDS011;37874;53.158;6.766;2022-07-25T08:36:39;4.07;;;3.17;;
51814;SDS011;37874;53.158;6.766;2022-07-25T08:39:05;3.63;;;3.28;;
51814;SDS011;37874;53.158;6.766;2022-07-25T08:41:32;3.53;;;3.22;;
51814;SDS011;37874;53.158;6.766;2022-07-25T08:43:57;3.88;;;3.40;;
51814;SDS011;37874;53.158;6.766;2022-07-25T08:46:24;3.40;;;3.10;;
51814;SDS011;37874;53.158;6.766;2022-07-25T08:48:52;3.53;;;2.70;;
51814;SDS011;37874;53.158;6.766;2022-07-25T08:51:18;3.38;;;3.08;;
51814;SDS011;37874;53.158;6.766;2022-07-25T08:53:44;3.22;;;2.78;;
51814;SDS011;37874;53.158;6.766;2022-07-25T08:56:11;3.97;;;3.03;;
51814;SDS011;37874;53.158;6.766;2022-07-25T08:58:36;3.42;;;2.92;;
51814;SDS011;37874;53.158;6.766;2022-07-25T09:01:03;3.50;;;2.60;;
51814;SDS011;37874;53.158;6.766;2022-07-25T09:03:29;3.10;;;2.75;;
51814;SDS011;37874;53.158;6.766;2022-07-25T09:05:54;2.95;;;2.63;;
51814;SDS011;37874;53.158;6.766;2022-07-25T09:08:20;2.95;;;2.40;;
51814;SDS011;37874;53.158;6.766;2022-07-25T09:10:49;3.58;;;2.70;;
51814;SDS011;37874;53.158;6.766;2022-07-25T09:13:16;3.20;;;2.80;;
51814;SDS011;37874;53.158;6.766;2022-07-25T09:15:48;2.95;;;2.47;;
51814;SDS011;37874;53.158;6.766;2022-07-25T09:18:15;3.45;;;2.60;;
51814;SDS011;37874;53.158;6.766;2022-07-25T09:26:05;2.95;;;2.50;;
51814;SDS011;37874;53.158;6.766;2022-07-25T09:28:31;3.17;;;2.50;;
51814;SDS011;37874;53.158;6.766;2022-07-25T09:31:03;3.20;;;2.70;;
51814;SDS011;37874;53.158;6.766;2022-07-25T09:33:28;2.78;;;2.40;;
51814;SDS011;37874;53.158;6.766;2022-07-25T09:35:55;3.10;;;2.65;;
51814;SDS011;37874;53.158;6.766;2022-07-25T09:38:21;3.28;;;2.90;;
51814;SDS011;37874;53.158;6.766;2022-07-25T09:40:53;4.15;;;2.42;;
51814;SDS011;37874;53.158;6.766;2022-07-25T09:43:33;2.90;;;2.13;;
51814;SDS011;37874;53.158;6.766;2022-07-25T09:46:01;2.40;;;1.80;;
51814;SDS011;37874;53.158;6.766;2022-07-25T09:48:27;2.08;;;1.40;;
51814;SDS011;37874;53.158;6.766;2022-07-25T09:50:52;2.40;;;1.50;;
51814;SDS011;37874;53.158;6.766;2022-07-25T09:53:19;2.60;;;1.58;;
51814;SDS011;37874;53.158;6.766;2022-07-25T09:55:45;1.90;;;1.23;;
51814;SDS011;37874;53.158;6.766;2022-07-25T09:58:11;2.08;;;1.40;;
51814;SDS011;37874;53.158;6.766;2022-07-25T10:00:38;1.48;;;1.08;;
51814;SDS011;37874;53.158;6.766;2022-07-25T10:05:54;2.15;;;1.30;;
51814;SDS011;37874;53.158;6.766;2022-07-25T10:08:24;2.20;;;1.15;;
51814;SDS011;37874;53.158;6.766;2022-07-25T10:10:51;1.60;;;1.10;;
51814;SDS011;37874;53.158;6.766;2022-07-25T10:13:27;2.95;;;1.10;;
51814;SDS011;37874;53.158;6.766;2022-07-25T10:15:54;1.67;;;1.08;;
51814;SDS011;37874;53.158;6.766;2022-07-25T10:18:20;1.45;;;0.82;;
51814;SDS011;37874;53.158;6.766;2022-07-25T10:20:51;1.90;;;1.20;;
51814;SDS011;37874;53.158;6.766;2022-07-25T10:23:32;1.17;;;0.70;;
51814;SDS011;37874;53.158;6.766;2022-07-25T10:26:16;1.30;;;0.80;;
51814;SDS011;37874;53.158;6.766;2022-07-25T10:28:46;2.88;;;1.30;;
51814;SDS011;37874;53.158;6.766;2022-07-25T10:31:17;1.75;;;1.13;;
51814;SDS011;37874;53.158;6.766;2022-07-25T10:34:26;1.65;;;1.00;;
51814;SDS011;37874;53.158;6.766;2022-07-25T10:36:47;1.05;;;0.70;;
51814;SDS011;37874;53.158;6.766;2022-07-25T10:39:20;1.50;;;0.90;;
51814;SDS011;37874;53.158;6.766;2022-07-25T10:41:57;1.45;;;0.73;;
51814;SDS011;37874;53.158;6.766;2022-07-25T10:44:26;1.27;;;0.75;;
51814;SDS011;37874;53.158;6.766;2022-07-25T10:47:08;1.48;;;0.80;;
51814;SDS011;37874;53.158;6.766;2022-07-25T10:49:35;1.45;;;0.88;;
51814;SDS011;37874;53.158;6.766;2022-07-25T10:52:03;2.17;;;0.70;;
51814;SDS011;37874;53.158;6.766;2022-07-25T10:54:38;1.20;;;0.70;;
51814;SDS011;37874;53.158;6.766;2022-07-25T10:57:04;0.95;;;0.50;;
51814;SDS011;37874;53.158;6.766;2022-07-25T10:59:35;0.90;;;0.57;;
51814;SDS011;37874;53.158;6.766;2022-07-25T11:02:02;1.30;;;0.80;;
51814;SDS011;37874;53.158;6.766;2022-07-25T11:04:30;1.33;;;0.63;;
51814;SDS011;37874;53.158;6.766;2022-07-25T11:06:56;1.45;;;0.60;;
51814;SDS011;37874;53.158;6.766;2022-07-25T11:09:23;1.17;;;0.70;;
51814;SDS011;37874;53.158;6.766;2022-07-25T11:11:56;0.80;;;0.50;;
51814;SDS011;37874;53.158;6.766;2022-07-25T11:14:24;0.88;;;0.50;;
51814;SDS011;37874;53.158;6.766;2022-07-25T11:16:56;0.93;;;0.63;;
51814;SDS011;37874;53.158;6.766;2022-07-25T11:19:33;0.85;;;0.57;;
51814;SDS011;37874;53.158;6.766;2022-07-25T11:21:59;0.95;;;0.60;;
51814;SDS011;37874;53.158;6.766;2022-07-25T11:24:38;1.20;;;0.80;;
51814;SDS011;37874;53.158;6.766;2022-07-25T11:27:06;1.30;;;0.80;;
51814;SDS011;37874;53.158;6.766;2022-07-25T11:29:34;2.03;;;0.90;;
51814;SDS011;37874;53.158;6.766;2022-07-25T11:32:06;1.40;;;0.90;;
51814;SDS011;37874;53.158;6.766;2022-07-25T11:34:35;0.90;;;0.60;;
51814;SDS011;37874;53.158;6.766;2022-07-25T11:37:04;1.10;;;0.73;;
51814;SDS011;37874;53.158;6.766;2022-07-25T11:39:31;1.58;;;0.70;;
51814;SDS011;37874;53.158;6.766;2022-07-25T11:42:03;1.05;;;0.60;;
51814;SDS011;37874;53.158;6.766;2022-07-25T11:44:41;0.98;;;0.60;;
51814;SDS011;37874;53.158;6.766;2022-07-25T11:47:28;1.33;;;0.60;;
51814;SDS011;37874;53.158;6.766;2022-07-25T11:49:56;1.60;;;0.90;;
51814;SDS011;37874;53.158;6.766;2022-07-25T11:52:31;0.90;;;0.60;;
51814;SDS011;37874;53.158;6.766;2022-07-25T11:55:03;1.00;;;0.68;;
51814;SDS011;37874;53.158;6.766;2022-07-25T11:57:34;0.90;;;0.60;;
51814;SDS011;37874;53.158;6.766;2022-07-25T12:00:03;1.52;;;0.70;;
51814;SDS011;37874;53.158;6.766;2022-07-25T12:02:33;1.13;;;0.60;;
51814;SDS011;37874;53.158;6.766;2022-07-25T12:05:02;1.10;;;0.60;;
51814;SDS011;37874;53.158;6.766;2022-07-25T12:10:06;1.20;;;0.60;;
51814;SDS011;37874;53.158;6.766;2022-07-25T12:13:07;1.20;;;0.70;;
51814;SDS011;37874;53.158;6.766;2022-07-25T12:15:35;1.33;;;0.63;;
51814;SDS011;37874;53.158;6.766;2022-07-25T12:18:02;1.67;;;0.80;;
51814;SDS011;37874;53.158;6.766;2022-07-25T12:20:32;1.27;;;0.60;;
51814;SDS011;37874;53.158;6.766;2022-07-25T12:23:00;1.00;;;0.60;;
51814;SDS011;37874;53.158;6.766;2022-07-25T12:25:29;1.15;;;0.60;;
51814;SDS011;37874;53.158;6.766;2022-07-25T12:27:55;1.13;;;0.47;;
51814;SDS011;37874;53.158;6.766;2022-07-25T12:30:22;0.93;;;0.50;;
51814;SDS011;37874;53.158;6.766;2022-07-25T12:32:49;1.05;;;0.60;;
51814;SDS011;37874;53.158;6.766;2022-07-25T12:35:15;0.77;;;0.45;;
51814;SDS011;37874;53.158;6.766;2022-07-25T12:37:41;0.98;;;0.50;;
51814;SDS011;37874;53.158;6.766;2022-07-25T12:40:08;0.98;;;0.60;;
51814;SDS011;37874;53.158;6.766;2022-07-25T12:42:35;1.52;;;0.60;;
51814;SDS011;37874;53.158;6.766;2022-07-25T12:45:01;1.65;;;0.60;;
51814;SDS011;37874;53.158;6.766;2022-07-25T12:47:27;1.25;;;0.50;;
51814;SDS011;37874;53.158;6.766;2022-07-25T12:49:53;0.68;;;0.40;;
51814;SDS011;37874;53.158;6.766;2022-07-25T12:52:19;0.50;;;0.30;;
51814;SDS011;37874;53.158;6.766;2022-07-25T12:54:45;0.80;;;0.50;;
51814;SDS011;37874;53.158;6.766;2022-07-25T12:57:11;1.23;;;0.60;;
51814;SDS011;37874;53.158;6.766;2022-07-25T12:59:37;0.70;;;0.38;;
51814;SDS011;37874;53.158;6.766;2022-07-25T13:02:03;0.70;;;0.40;;
51814;SDS011;37874;53.158;6.766;2022-07-25T13:04:29;1.05;;;0.40;;
51814;SDS011;37874;53.158;6.766;2022-07-25T13:06:56;0.88;;;0.40;;
51814;SDS011;37874;53.158;6.766;2022-07-25T13:09:23;0.75;;;0.40;;
51814;SDS011;37874;53.158;6.766;2022-07-25T13:11:49;0.88;;;0.38;;
51814;SDS011;37874;53.158;6.766;2022-07-25T13:14:15;1.10;;;0.50;;
51814;SDS011;37874;53.158;6.766;2022-07-25T13:16:42;0.85;;;0.32;;
51814;SDS011;37874;53.158;6.766;2022-07-25T13:19:09;1.05;;;0.32;;
51814;SDS011;37874;53.158;6.766;2022-07-25T13:21:35;1.45;;;0.50;;
51814;SDS011;37874;53.158;6.766;2022-07-25T13:24:01;0.98;;;0.40;;
51814;SDS011;37874;53.158;6.766;2022-07-25T13:26:26;0.63;;;0.40;;
51814;SDS011;37874;53.158;6.766;2022-07-25T13:28:52;0.63;;;0.40;;
51814;SDS011;37874;53.158;6.766;2022-07-25T13:31:18;1.13;;;0.40;;
51814;SDS011;37874;53.158;6.766;2022-07-25T13:33:46;0.50;;;0.30;;
51814;SDS011;37874;53.158;6.766;2022-07-25T13:36:12;0.77;;;0.30;;
51814;SDS011;37874;53.158;6.766;2022-07-25T13:38:38;1.20;;;0.40;;
51814;SDS011;37874;53.158;6.766;2022-07-25T13:41:08;0.63;;;0.30;;
51814;SDS011;37874;53.158;6.766;2022-07-25T13:43:34;1.38;;;0.55;;
51814;SDS011;37874;53.158;6.766;2022-07-25T13:46:00;1.25;;;0.45;;
51814;SDS011;37874;53.158;6.766;2022-07-25T13:48:26;1.00;;;0.40;;
51814;SDS011;37874;53.158;6.766;2022-07-25T13:50:53;0.40;;;0.30;;
51814;SDS011;37874;53.158;6.766;2022-07-25T13:53:19;0.85;;;0.47;;
51814;SDS011;37874;53.158;6.766;2022-07-25T13:55:45;1.13;;;0.50;;
51814;SDS011;37874;53.158;6.766;2022-07-25T13:58:11;0.88;;;0.40;;
51814;SDS011;37874;53.158;6.766;2022-07-25T14:00:37;0.73;;;0.40;;
51814;SDS011;37874;53.158;6.766;2022-07-25T14:03:03;1.48;;;0.60;;
51814;SDS011;37874;53.158;6.766;2022-07-25T14:05:29;0.70;;;0.40;;
51814;SDS011;37874;53.158;6.766;2022-07-25T14:07:55;0.70;;;0.30;;
51814;SDS011;37874;53.158;6.766;2022-07-25T14:10:20;0.82;;;0.43;;
51814;SDS011;37874;53.158;6.766;2022-07-25T14:12:46;1.58;;;0.40;;
51814;SDS011;37874;53.158;6.766;2022-07-25T14:15:12;2.42;;;0.50;;
51814;SDS011;37874;53.158;6.766;2022-07-25T14:17:37;0.70;;;0.50;;
51814;SDS011;37874;53.158;6.766;2022-07-25T14:20:04;1.20;;;0.35;;
51814;SDS011;37874;53.158;6.766;2022-07-25T14:22:30;1.15;;;0.60;;
51814;SDS011;37874;53.158;6.766;2022-07-25T14:24:56;0.93;;;0.50;;
51814;SDS011;37874;53.158;6.766;2022-07-25T14:27:22;1.25;;;0.52;;
51814;SDS011;37874;53.158;6.766;2022-07-25T14:29:48;2.17;;;0.65;;
51814;SDS011;37874;53.158;6.766;2022-07-25T14:32:13;1.45;;;0.60;;
51814;SDS011;37874;53.158;6.766;2022-07-25T14:34:39;1.00;;;0.60;;
51814;SDS011;37874;53.158;6.766;2022-07-25T14:37:05;1.15;;;0.52;;
51814;SDS011;37874;53.158;6.766;2022-07-25T14:39:31;1.70;;;0.70;;
51814;SDS011;37874;53.158;6.766;2022-07-25T14:41:58;1.00;;;0.50;;
51814;SDS011;37874;53.158;6.766;2022-07-25T14:44:24;1.10;;;0.60;;
51814;SDS011;37874;53.158;6.766;2022-07-25T14:46:51;1.30;;;0.63;;
51814;SDS011;37874;53.158;6.766;2022-07-25T14:49:17;1.08;;;0.60;;
51814;SDS011;37874;53.158;6.766;2022-07-25T14:51:43;1.20;;;0.57;;
51814;SDS011;37874;53.158;6.766;2022-07-25T14:54:11;1.10;;;0.40;;
51814;SDS011;37874;53.158;6.766;2022-07-25T14:56:37;1.05;;;0.57;;